CDT,Max TemperatureF,Mean TemperatureF,Min TemperatureF,Max Dew PointF,MeanDew PointF,Min DewpointF,Max Humidity, Mean Humidity, Min Humidity, Max Sea Level PressureIn, Mean Sea Level PressureIn, Min Sea Level PressureIn, Max VisibilityMiles, Mean VisibilityMiles, Min VisibilityMiles, Max Wind SpeedMPH, Mean Wind SpeedMPH, Max Gust SpeedMPH,PrecipitationIn, CloudCover, Events, WindDirDegrees
2013-4-1,80,61,42,52,38,30,66,44,20,30.16,30.08,29.96,10,10,7,21,7,26,0.00,1,Thunderstorm,66
2013-4-2,73,58,44,52,43,37,87,62,38,30.04,29.98,29.92,10,10,9,23,7,41,0.07,1,Thunderstorm,33
2013-4-3,66,52,37,41,35,25,93,62,21,30.19,30.10,30.02,10,10,10,21,11,25,0.00,0,,11
2013-4-4,73,52,30,36,27,19,81,44,16,30.27,30.21,30.17,10,10,10,15,5,22,0.00,0,,40
2013-4-5,78,58,39,34,27,19,61,33,13,30.25,30.16,30.04,10,10,9,21,8,28,0.00,0,,148
2013-4-6,80,60,39,36,24,9,65,30,10,30.11,30.04,29.99,10,10,10,22,8,31,0.00,0,,305
2013-4-7,80,60,41,23,16,10,31,18,10,30.05,29.97,29.89,10,10,10,22,9,30,0.00,0,,300
2013-4-8,82,60,39,27,19,12,36,20,10,29.91,29.81,29.67,10,10,10,25,8,37,0.00,0,,190
2013-4-9,82,66,51,28,23,18,35,22,10,29.88,29.74,29.63,10,10,10,33,14,39,0.00,2,,197
2013-4-10,62,52,41,37,25,18,76,39,20,30.00,29.96,29.89,10,10,10,20,9,24,0.00,3,,327
2013-4-11,66,47,28,25,17,9,59,32,14,30.02,29.96,29.89,10,10,10,25,8,33,0.00,0,,298
2013-4-12,75,54,32,34,16,9,39,24,11,30.01,29.93,29.86,10,10,10,14,7,18,0.00,0,,123
2013-4-13,73,56,39,48,37,25,87,55,31,29.92,29.88,29.83,10,10,10,22,6,25,0.06,2,Thunderstorm,358
2013-4-14,78,56,35,43,29,16,93,46,11,29.93,29.87,29.81,10,10,10,28,9,31,0.00,0,,280
2013-4-15,82,63,44,28,22,16,46,23,10,29.97,29.91,29.86,10,10,10,22,8,30,0.00,0,,259
2013-4-16,87,63,39,28,20,1,39,20,10,30.00,29.94,29.89,10,10,10,20,7,26,0.00,0,,199
2013-4-17,84,65,46,52,28,7,93,36,10,29.93,29.88,29.79,10,10,6,31,9,37,0.00,1,,250
2013-4-18,66,54,42,28,20,12,46,27,14,30.17,30.03,29.87,10,10,5,26,15,33,0.00,1,,342
2013-4-19,64,47,30,21,14,9,44,27,13,30.32,30.23,30.14,10,10,10,12,6,,0.00,0,,128
2013-4-20,78,54,30,27,15,-4,44,24,10,30.16,30.05,29.93,10,10,10,26,8,33,0.00,0,,275
2013-4-21,80,58,37,19,10,-6,25,15,10,30.19,30.11,30.05,10,10,10,15,5,23,0.00,0,,306
2013-4-22,86,60,35,25,14,3,28,16,10,30.14,30.07,29.97,10,10,10,17,7,25,0.00,0,,277
2013-4-23,69,56,42,30,25,7,43,30,19,30.12,30.02,29.95,10,10,7,22,10,26,0.00,1,,24
2013-4-24,68,50,33,41,30,25,70,50,34,30.29,30.21,30.13,10,10,10,23,14,29,0.00,2,,57
2013-4-25,80,58,35,45,34,19,60,43,15,30.28,30.18,30.05,10,10,10,23,7,29,0.00,0,,139
2013-4-26,82,60,39,41,25,7,81,34,10,30.23,30.17,30.12,10,10,9,23,7,30,0.00,0,,308
2013-4-27,78,62,46,41,28,3,45,27,14,30.23,30.17,30.09,10,10,10,21,11,26,0.00,0,,30
2013-4-28,75,60,44,54,44,37,93,58,25,30.14,30.09,30.00,10,10,9,20,7,41,0.26,1,Thunderstorm,84
2013-4-29,82,62,41,46,37,23,93,52,12,30.09,29.99,29.89,10,10,10,17,5,33,0.00,0,,271
2013-4-30,87,64,42,39,29,16,71,32,10,29.96,29.92,29.86,10,10,10,21,8,26,0.00,0,,295